Time;durP1;ratioP1;P1;durP2;ratioP2;P2;SDS_P1;SDS_P2;PMS_P1;PMS_P2;Temp;Humidity;BMP_temperature;BMP_pressure;BME280_temperature;BME280_humidity;BME280_pressure;Samples;Min_cycle;Max_cycle;Signal;HPM_P1;HPM_P2
2022/06/26 00:01:32;;;;;;;;;;;;;;;;;;5109224;28;1269;-66
2022/06/26 00:03:58;;;;;;;;;;;;;;;;;;5110843;28;852;-65
2022/06/26 00:06:23;;;;;;;;;;;;;;;;;;5091692;28;860;-66
2022/06/26 00:08:48;;;;;;;;;;;;;;;;;;5110676;27;975;-66
2022/06/26 00:11:14;;;;;;;;;;;;;;;;;;5110435;28;871;-66
2022/06/26 00:13:39;;;;;;;;;;;;;;;;;;5111186;28;931;-66
2022/06/26 00:16:04;;;;;;;;;;;;;;;;;;5111166;28;1102;-66
2022/06/26 00:18:30;;;;;;;;;;;;;;;;;;5111316;28;1880;-66
2022/06/26 00:20:55;;;;;;;;;;;;;;;;;;5109906;28;896;-66
2022/06/26 00:23:20;;;;;;;;;;;;;;;;;;5109598;28;844;-66
2022/06/26 00:25:45;;;;;;;;;;;;;;;;;;5109964;28;817;-66
2022/06/26 00:28:11;;;;;;;;;;;;;;;;;;5111010;28;986;-66
2022/06/26 00:30:36;;;;;;;;;;;;;;;;;;5093331;28;1124;-66
2022/06/26 00:33:02;;;;;;;;;;;;;;;;;;5110510;28;1088;-66
2022/06/26 00:35:27;;;;;;;;;;;;;;;;;;5110885;28;1010;-66
2022/06/26 00:37:52;;;;;;;;;;;;;;;;;;5110893;28;1893;-66
2022/06/26 00:40:17;;;;;;;;;;;;;;;;;;5110673;28;934;-66
2022/06/26 00:42:43;;;;;;;;;;;;;;;;;;5109706;28;986;-66
2022/06/26 00:45:08;;;;;;;;;;;;;;;;;;5111372;28;958;-67
2022/06/26 00:47:34;;;;;;;;;;;;;;;;;;5109344;28;1247;-66
2022/06/26 00:49:59;;;;;;;;;;;;;;;;;;5109161;28;1059;-66
2022/06/26 00:52:24;;;;;;;;;;;;;;;;;;5110050;28;991;-66
2022/06/26 00:54:51;;;;;;;;;;;;;;;;;;5110021;28;903;-66
2022/06/26 00:57:16;;;;;;;;;;;;;;;;;;5110190;28;919;-66
2022/06/26 00:59:42;;;;;;;;;;;;;;;;;;5110170;28;1902;-66
2022/06/26 01:02:07;;;;;;;;;;;;;;;;;;5109232;28;1513;-66
2022/06/26 01:04:33;;;;;;;;;;;;;;;;;;5108444;28;1158;-66
2022/06/26 01:06:58;;;;;;;;;;;;;;;;;;5108707;28;1491;-66
2022/06/26 01:09:24;;;;;;;;;;;;;;;;;;5110414;28;828;-66
2022/06/26 01:11:50;;;;;;;;;;;;;;;;;;5110025;28;915;-66
2022/06/26 01:14:16;;;;;;;;;;;;;;;;;;5110029;28;785;-66
2022/06/26 01:16:41;;;;;;;;;;;;;;;;;;5110657;28;978;-66
2022/06/26 01:19:07;;;;;;;;;;;;;;;;;;5113531;28;1898;-66
2022/06/26 01:21:33;;;;;;;;;;;;;;;;;;5112139;28;1351;-66
2022/06/26 01:23:59;;;;;;;;;;;;;;;;;;5113681;28;900;-66
2022/06/26 01:26:24;;;;;;;;;;;;;;;;;;5113441;28;954;-66
2022/06/26 01:28:50;;;;;;;;;;;;;;;;;;5113687;28;1187;-68
2022/06/26 01:31:15;;;;;;;;;;;;;;;;;;5112753;28;1226;-69
2022/06/26 01:33:40;;;;;;;;;;;;;;;;;;5126778;27;1349;-68
2022/06/26 01:36:06;;;;;;;;;;;;;;;;;;5125019;27;1095;-68
2022/06/26 01:38:31;;;;;;;;;;;;;;;;;;5114476;28;1984;-68
2022/06/26 01:40:57;;;;;;;;;;;;;;;;;;5114603;28;1006;-68
2022/06/26 01:43:32;;;;;;;;;;;;;;;;;;5114907;28;813;-68
2022/06/26 01:45:58;;;;;;;;;;;;;;;;;;5115184;28;982;-68
2022/06/26 01:48:24;;;;;;;;;;;;;;;;;;5114109;28;1057;-68
2022/06/26 01:50:50;;;;;;;;;;;;;;;;;;5113359;28;896;-68
2022/06/26 01:53:15;;;;;;;;;;;;;;;;;;5114989;27;1080;-68
2022/06/26 01:55:41;;;;;;;;;;;;;;;;;;5114260;28;1081;-69
2022/06/26 01:58:08;;;;;;;;;;;;;;;;;;5112468;28;1910;-69
2022/06/26 02:00:34;;;;;;;;;;;;;;;;;;5113107;28;871;-69
2022/06/26 02:02:59;;;;;;;;;;;;;;;;;;5113139;28;974;-69
2022/06/26 02:05:25;;;;;;;;;;;;;;;;;;5112608;28;832;-69
2022/06/26 02:07:50;;;;;;;;;;;;;;;;;;5113515;27;741;-66
2022/06/26 02:15:45;;;;;;;;;;;;;;;;;;5113056;28;763;-66
2022/06/26 02:18:10;;;;;;;;;;;;;;;;;;5112814;28;1901;-67
2022/06/26 02:20:36;;;;;;;;;;;;;;;;;;5110299;28;769;-67
2022/06/26 02:23:01;;;;;;;;;;;;;;;;;;5111511;28;786;-66
2022/06/26 02:25:26;;;;;;;;;;;;;;;;;;5112904;28;859;-66
2022/06/26 02:27:52;;;;;;;;;;;;;;;;;;5112064;28;896;-66
2022/06/26 02:30:17;;;;;;;;;;;;;;;;;;5112178;28;1199;-66
2022/06/26 02:32:42;;;;;;;;;;;;;;;;;;5111764;28;1246;-66
2022/06/26 02:35:07;;;;;;;;;;;;;;;;;;5113049;28;994;-66
2022/06/26 02:37:34;;;;;;;;;;;;;;;;;;5112859;28;962;-66
2022/06/26 02:39:59;;;;;;;;;;;;;;;;;;5111162;28;1894;-66
2022/06/26 02:42:25;;;;;;;;;;;;;;;;;;5110873;28;903;-66
2022/06/26 02:44:50;;;;;;;;;;;;;;;;;;5112641;28;792;-67
2022/06/26 02:47:15;;;;;;;;;;;;;;;;;;5110292;28;1397;-66
2022/06/26 02:49:40;;;;;;;;;;;;;;;;;;5110920;28;1364;-66
2022/06/26 02:52:06;;;;;;;;;;;;;;;;;;5110733;28;1122;-66
2022/06/26 02:54:31;;;;;;;;;;;;;;;;;;5111451;28;1075;-66
2022/06/26 02:56:57;;;;;;;;;;;;;;;;;;5110362;28;852;-66
2022/06/26 02:59:22;;;;;;;;;;;;;;;;;;5111204;28;1902;-66
2022/06/26 03:01:47;;;;;;;;;;;;;;;;;;5111775;28;907;-67
2022/06/26 03:04:12;;;;;;;;;;;;;;;;;;5110266;28;1062;-65
2022/06/26 03:06:38;;;;;;;;;;;;;;;;;;5111610;28;918;-66
2022/06/26 03:09:03;;;;;;;;;;;;;;;;;;5111517;28;998;-66
2022/06/26 03:11:28;;;;;;;;;;;;;;;;;;5110238;28;746;-67
2022/06/26 03:13:53;;;;;;;;;;;;;;;;;;5111828;28;974;-67
2022/06/26 03:16:19;;;;;;;;;;;;;;;;;;5109236;28;1189;-66
2022/06/26 03:18:44;;;;;;;;;;;;;;;;;;5093107;28;1926;-66
2022/06/26 03:21:09;;;;;;;;;;;;;;;;;;5111729;28;971;-66
2022/06/26 03:24:07;;;;;;;;;;;;;;;;;;5111290;28;899;-66
2022/06/26 03:26:26;;;;;;;;;;;;;;;;;;5106197;28;1355;-66
2022/06/26 03:28:51;;;;;;;;;;;;;;;;;;5110255;28;1284;-69
2022/06/26 03:31:16;;;;;;;;;;;;;;;;;;5110836;28;945;-69
2022/06/26 03:33:41;;;;;;;;;;;;;;;;;;5109485;28;1398;-69
2022/06/26 03:36:08;;;;;;;;;;;;;;;;;;5109501;28;937;-68
2022/06/26 03:38:33;;;;;;;;;;;;;;;;;;5109387;28;2039;-68
2022/06/26 03:40:59;;;;;;;;;;;;;;;;;;5109092;28;833;-69
2022/06/26 03:43:24;;;;;;;;;;;;;;;;;;5110472;28;952;-67
2022/06/26 03:45:49;;;;;;;;;;;;;;;;;;5092447;28;1273;-66
2022/06/26 03:48:14;;;;;;;;;;;;;;;;;;5109275;28;1281;-67
2022/06/26 03:50:39;;;;;;;;;;;;;;;;;;5110974;28;923;-66
2022/06/26 03:53:05;;;;;;;;;;;;;;;;;;5109584;28;987;-66
2022/06/26 03:55:30;;;;;;;;;;;;;;;;;;5111920;28;824;-67
2022/06/26 03:57:55;;;;;;;;;;;;;;;;;;5111296;28;1966;-67
2022/06/26 04:00:21;;;;;;;;;;;;;;;;;;5111027;28;812;-66
2022/06/26 04:02:46;;;;;;;;;;;;;;;;;;5111611;28;907;-66
2022/06/26 04:05:11;;;;;;;;;;;;;;;;;;5111190;28;860;-66
2022/06/26 04:07:37;;;;;;;;;;;;;;;;;;5093051;28;1132;-66
2022/06/26 04:10:03;;;;;;;;;;;;;;;;;;5110255;28;887;-67
2022/06/26 04:12:28;;;;;;;;;;;;;;;;;;5110544;28;836;-67
2022/06/26 04:14:53;;;;;;;;;;;;;;;;;;5109496;28;1350;-66
2022/06/26 04:17:18;;;;;;;;;;;;;;;;;;5091529;28;1516;-66
2022/06/26 04:19:44;;;;;;;;;;;;;;;;;;5092197;28;1910;-66
2022/06/26 04:22:09;;;;;;;;;;;;;;;;;;5110760;28;852;-66
2022/06/26 04:24:34;;;;;;;;;;;;;;;;;;5110352;28;899;-67
2022/06/26 04:26:59;;;;;;;;;;;;;;;;;;5109574;28;868;-66
2022/06/26 04:29:24;;;;;;;;;;;;;;;;;;5109948;28;1061;-66
2022/06/26 04:31:50;;;;;;;;;;;;;;;;;;5109175;28;1118;-66
2022/06/26 04:34:15;;;;;;;;;;;;;;;;;;5110381;28;923;-66
2022/06/26 04:36:41;;;;;;;;;;;;;;;;;;5110935;28;797;-66
2022/06/26 04:39:06;;;;;;;;;;;;;;;;;;5109349;28;1953;-66
2022/06/26 04:41:32;;;;;;;;;;;;;;;;;;5110131;28;954;-66
2022/06/26 04:43:57;;;;;;;;;;;;;;;;;;5110450;28;879;-67
2022/06/26 04:46:23;;;;;;;;;;;;;;;;;;5109881;28;871;-66
2022/06/26 04:48:48;;;;;;;;;;;;;;;;;;5110589;28;835;-66
2022/06/26 04:51:13;;;;;;;;;;;;;;;;;;5110106;28;923;-66
2022/06/26 04:53:39;;;;;;;;;;;;;;;;;;5112993;28;939;-66
2022/06/26 04:56:04;;;;;;;;;;;;;;;;;;5113181;28;1372;-66
2022/06/26 04:58:30;;;;;;;;;;;;;;;;;;5111272;28;1909;-66
2022/06/26 05:00:55;;;;;;;;;;;;;;;;;;5114497;28;1042;-66
2022/06/26 05:03:20;;;;;;;;;;;;;;;;;;5113653;28;1006;-66
2022/06/26 05:05:45;;;;;;;;;;;;;;;;;;5114116;28;919;-66
2022/06/26 05:08:12;;;;;;;;;;;;;;;;;;5113183;28;1331;-67
2022/06/26 05:10:37;;;;;;;;;;;;;;;;;;5112692;28;1320;-66
2022/06/26 05:13:02;;;;;;;;;;;;;;;;;;5095777;28;1310;-67
2022/06/26 05:15:27;;;;;;;;;;;;;;;;;;5113330;28;816;-66
2022/06/26 05:17:53;;;;;;;;;;;;;;;;;;5113867;28;1913;-66
2022/06/26 05:20:18;;;;;;;;;;;;;;;;;;5113112;28;820;-67
2022/06/26 05:22:43;;;;;;;;;;;;;;;;;;5112370;28;1262;-67
2022/06/26 05:25:08;;;;;;;;;;;;;;;;;;5130326;27;1455;-66
2022/06/26 05:27:34;;;;;;;;;;;;;;;;;;5126373;27;1115;-66
2022/06/26 05:29:59;;;;;;;;;;;;;;;;;;5113788;28;1100;-66
2022/06/26 05:32:25;;;;;;;;;;;;;;;;;;5113929;28;1302;-66
2022/06/26 05:34:50;;;;;;;;;;;;;;;;;;5114452;28;872;-67
2022/06/26 05:37:15;;;;;;;;;;;;;;;;;;5114061;28;935;-65
2022/06/26 05:39:40;;;;;;;;;;;;;;;;;;5114446;28;1913;-66
2022/06/26 05:42:06;;;;;;;;;;;;;;;;;;5114002;28;828;-65
2022/06/26 05:44:31;;;;;;;;;;;;;;;;;;5114064;28;840;-66
2022/06/26 05:46:56;;;;;;;;;;;;;;;;;;5114973;28;836;-66
2022/06/26 05:49:22;;;;;;;;;;;;;;;;;;5113597;28;928;-66
2022/06/26 05:51:47;;;;;;;;;;;;;;;;;;5113612;28;1229;-66
2022/06/26 05:54:12;;;;;;;;;;;;;;;;;;5112506;28;991;-66
2022/06/26 05:56:37;;;;;;;;;;;;;;;;;;5113130;27;1209;-66
2022/06/26 05:59:02;;;;;;;;;;;;;;;;;;5112021;28;1910;-66
2022/06/26 06:01:28;;;;;;;;;;;;;;;;;;5112999;28;828;-66
2022/06/26 06:03:53;;;;;;;;;;;;;;;;;;5113079;28;916;-66
2022/06/26 06:06:19;;;;;;;;;;;;;;;;;;5113407;28;982;-66
2022/06/26 06:08:44;;;;;;;;;;;;;;;;;;5113454;28;1026;-66
2022/06/26 06:11:09;;;;;;;;;;;;;;;;;;5113530;28;892;-66
2022/06/26 06:13:34;;;;;;;;;;;;;;;;;;5112685;28;986;-66
2022/06/26 06:16:00;;;;;;;;;;;;;;;;;;5094813;28;1349;-66
2022/06/26 06:18:25;;;;;;;;;;;;;;;;;;5111244;28;1905;-66
2022/06/26 06:20:50;;;;;;;;;;;;;;;;;;5112987;28;974;-66
2022/06/26 06:23:15;;;;;;;;;;;;;;;;;;5112499;28;844;-66
2022/06/26 06:25:41;;;;;;;;;;;;;;;;;;5094163;28;1174;-66
2022/06/26 06:28:06;;;;;;;;;;;;;;;;;;5111443;28;1102;-66
2022/06/26 06:30:31;;;;;;;;;;;;;;;;;;5110834;28;1185;-67
2022/06/26 06:32:56;;;;;;;;;;;;;;;;;;5112391;28;1245;-66
2022/06/26 06:35:22;;;;;;;;;;;;;;;;;;5112270;28;879;-66
2022/06/26 06:37:48;;;;;;;;;;;;;;;;;;5111241;28;1977;-66
2022/06/26 06:40:14;;;;;;;;;;;;;;;;;;5112807;27;875;-66
2022/06/26 06:42:39;;;;;;;;;;;;;;;;;;5111906;28;998;-66
2022/06/26 06:45:05;;;;;;;;;;;;;;;;;;5112575;28;895;-66
2022/06/26 06:47:30;;;;;;;;;;;;;;;;;;5110319;28;1233;-66
2022/06/26 06:49:55;;;;;;;;;;;;;;;;;;5112861;27;780;-66
2022/06/26 06:52:21;;;;;;;;;;;;;;;;;;5110686;28;1364;-66
2022/06/26 06:54:46;;;;;;;;;;;;;;;;;;5112265;28;990;-66
2022/06/26 06:57:11;;;;;;;;;;;;;;;;;;5110846;28;1309;-66
2022/06/26 06:59:37;;;;;;;;;;;;;;;;;;5110357;28;1897;-66
2022/06/26 07:02:02;;;;;;;;;;;;;;;;;;5111030;28;829;-66
2022/06/26 07:04:27;;;;;;;;;;;;;;;;;;5111693;28;789;-66
2022/06/26 07:06:54;;;;;;;;;;;;;;;;;;5112397;28;840;-65
2022/06/26 07:09:19;;;;;;;;;;;;;;;;;;5110465;28;879;-65
2022/06/26 07:11:44;;;;;;;;;;;;;;;;;;5110121;28;840;-65
2022/06/26 07:14:09;;;;;;;;;;;;;;;;;;5112904;28;789;-66
2022/06/26 07:16:35;;;;;;;;;;;;;;;;;;5110263;28;959;-66
2022/06/26 07:19:01;;;;;;;;;;;;;;;;;;5111299;28;1953;-65
2022/06/26 07:21:26;;;;;;;;;;;;;;;;;;5113474;28;829;-66
2022/06/26 07:23:51;;;;;;;;;;;;;;;;;;5113887;28;844;-66
2022/06/26 07:26:17;;;;;;;;;;;;;;;;;;5113511;28;895;-66
2022/06/26 07:28:42;;;;;;;;;;;;;;;;;;5111801;28;1252;-66
2022/06/26 07:31:07;;;;;;;;;;;;;;;;;;5113518;28;946;-66
2022/06/26 07:36:16;;;;;;;;;;;;;;;;;;5113299;28;884;-66
2022/06/26 07:38:41;;;;;;;;;;;;;;;;;;5111631;28;1914;-66
2022/06/26 07:41:07;;;;;;;;;;;;;;;;;;5113277;28;840;-66
2022/06/26 07:43:33;;;;;;;;;;;;;;;;;;5112316;28;803;-66
2022/06/26 07:45:58;;;;;;;;;;;;;;;;;;5113058;28;998;-66
2022/06/26 07:48:23;;;;;;;;;;;;;;;;;;5111271;28;773;-66
2022/06/26 07:50:48;;;;;;;;;;;;;;;;;;5111478;28;895;-66
2022/06/26 07:53:14;;;;;;;;;;;;;;;;;;5111541;28;970;-66
2022/06/26 07:55:39;;;;;;;;;;;;;;;;;;5109399;28;1154;-65
2022/06/26 07:58:04;;;;;;;;;;;;;;;;;;5109919;28;1955;-65
2022/06/26 08:00:29;;;;;;;;;;;;;;;;;;5110559;28;911;-66
2022/06/26 08:02:55;;;;;;;;;;;;;;;;;;5109531;28;1228;-66
2022/06/26 08:05:20;;;;;;;;;;;;;;;;;;5110578;28;959;-66
2022/06/26 08:07:45;;;;;;;;;;;;;;;;;;5109479;28;1001;-67
2022/06/26 08:10:11;;;;;;;;;;;;;;;;;;5109807;28;1154;-66
2022/06/26 08:12:37;;;;;;;;;;;;;;;;;;5091872;28;1320;-66
2022/06/26 08:15:03;;;;;;;;;;;;;;;;;;5110952;28;896;-66
2022/06/26 08:17:28;;;;;;;;;;;;;;;;;;5091803;28;1162;-66
2022/06/26 08:19:53;;;;;;;;;;;;;;;;;;5110353;28;1909;-66
2022/06/26 08:22:18;;;;;;;;;;;;;;;;;;5110294;28;875;-66
2022/06/26 08:24:44;;;;;;;;;;;;;;;;;;5111099;28;895;-66
2022/06/26 08:27:09;;;;;;;;;;;;;;;;;;5110584;28;907;-67
2022/06/26 08:29:35;;;;;;;;;;;;;;;;;;5110186;28;955;-66
2022/06/26 08:32:00;;;;;;;;;;;;;;;;;;5110375;28;1040;-66
2022/06/26 08:34:26;;;;;;;;;;;;;;;;;;5109651;28;836;-66
2022/06/26 08:36:52;;;;;;;;;;;;;;;;;;5110268;28;821;-66
2022/06/26 08:39:17;;;;;;;;;;;;;;;;;;5110037;28;1902;-67
2022/06/26 08:41:44;;;;;;;;;;;;;;;;;;5110094;28;805;-66
2022/06/26 08:44:10;;;;;;;;;;;;;;;;;;5108922;28;1302;-67
2022/06/26 08:46:38;;;;;;;;;;;;;;;;;;5110155;28;832;-66
2022/06/26 08:49:07;;;;;;;;;;;;;;;;;;5110855;28;895;-66
2022/06/26 08:51:33;;;;;;;;;;;;;;;;;;5110315;28;907;-66
2022/06/26 08:54:00;;;;;;;;;;;;;;;;;;5092262;28;1162;-67
2022/06/26 08:56:25;;;;;;;;;;;;;;;;;;5110599;28;1009;-66
2022/06/26 08:58:50;;;;;;;;;;;;;;;;;;5110536;28;1959;-67
2022/06/26 09:01:15;;;;;;;;;;;;;;;;;;5109133;28;1545;-67
2022/06/26 09:03:40;;;;;;;;;;;;;;;;;;5111936;28;938;-66
2022/06/26 09:06:06;;;;;;;;;;;;;;;;;;5110589;28;1327;-66
2022/06/26 09:08:42;;;;;;;;;;;;;;;;;;5110554;28;876;-66
2022/06/26 09:11:07;;;;;;;;;;;;;;;;;;5110344;28;863;-67
2022/06/26 09:13:36;;;;;;;;;;;;;;;;;;5109765;28;844;-67
2022/06/26 09:16:01;;;;;;;;;;;;;;;;;;5110278;28;797;-67
2022/06/26 09:18:32;;;;;;;;;;;;;;;;;;5109921;28;1902;-66
2022/06/26 09:20:57;;;;;;;;;;;;;;;;;;5110485;28;888;-67
2022/06/26 09:23:23;;;;;;;;;;;;;;;;;;5109043;28;790;-67
2022/06/26 09:25:48;;;;;;;;;;;;;;;;;;5108761;28;936;-67
2022/06/26 09:28:23;;;;;;;;;;;;;;;;;;5108684;28;1447;-67
2022/06/26 09:30:52;;;;;;;;;;;;;;;;;;5109819;28;900;-66
2022/06/26 09:33:22;;;;;;;;;;;;;;;;;;5109639;28;1036;-66
2022/06/26 09:35:47;;;;;;;;;;;;;;;;;;5108416;28;1470;-67
2022/06/26 09:38:17;;;;;;;;;;;;;;;;;;5110143;28;1909;-66
2022/06/26 09:41:01;;;;;;;;;;;;;;;;;;5113753;28;1106;-67
2022/06/26 09:43:27;;;;;;;;;;;;;;;;;;5113245;28;1064;-67
2022/06/26 09:45:54;;;;;;;;;;;;;;;;;;5113525;28;938;-66
2022/06/26 09:48:20;;;;;;;;;;;;;;;;;;5111987;28;979;-66
2022/06/26 09:50:46;;;;;;;;;;;;;;;;;;5113234;28;907;-66
2022/06/26 09:53:13;;;;;;;;;;;;;;;;;;5113289;28;758;-67
2022/06/26 09:55:38;;;;;;;;;;;;;;;;;;5112950;28;970;-66
2022/06/26 09:58:03;;;;;;;;;;;;;;;;;;5112613;28;2301;-66
2022/06/26 10:00:31;;;;;;;;;;;;;;;;;;5094349;28;1411;-66
2022/06/26 10:08:25;;;;;;;;;;;;;;;;;;5112917;28;705;-66
2022/06/26 10:10:51;;;;;;;;;;;;;;;;;;5094720;28;1414;-66
2022/06/26 10:13:16;;;;;;;;;;;;;;;;;;5111863;28;1272;-67
2022/06/26 10:15:45;;;;;;;;;;;;;;;;;;5111388;28;1009;-67
2022/06/26 10:18:34;;;;;;;;;;;;;;;;;;5112992;28;1952;-66
2022/06/26 10:21:08;;;;;;;;;;;;;;;;;;5122942;27;1190;-66
2022/06/26 10:23:34;;;;;;;;;;;;;;;;;;5133192;27;1177;-66
2022/06/26 10:26:10;;;;;;;;;;;;;;;;;;5134270;27;824;-66
2022/06/26 10:28:35;;;;;;;;;;;;;;;;;;5133949;27;928;-67
2022/06/26 10:31:06;;;;;;;;;;;;;;;;;;5134575;27;879;-66
2022/06/26 10:33:31;;;;;;;;;;;;;;;;;;5133617;27;1212;-67
2022/06/26 10:35:57;;;;;;;;;;;;;;;;;;5132512;27;963;-67
2022/06/26 10:38:27;;;;;;;;;;;;;;;;;;5132525;27;1975;-67
2022/06/26 10:44:01;;;;;;;;;;;;;;;;;;5133357;27;621;-66
2022/06/26 10:46:33;;;;;;;;;;;;;;;;;;5133080;27;836;-67
2022/06/26 10:48:59;;;;;;;;;;;;;;;;;;5133314;27;867;-67
2022/06/26 10:51:29;;;;;;;;;;;;;;;;;;5131607;27;1211;-66
2022/06/26 10:53:54;;;;;;;;;;;;;;;;;;5132905;27;1450;-67
2022/06/26 10:56:20;;;;;;;;;;;;;;;;;;5133104;27;792;-67
2022/06/26 10:58:46;;;;;;;;;;;;;;;;;;5132182;27;1905;-67
2022/06/26 11:01:12;;;;;;;;;;;;;;;;;;5132770;27;864;-67
2022/06/26 11:03:38;;;;;;;;;;;;;;;;;;5133019;27;883;-67
2022/06/26 11:06:10;;;;;;;;;;;;;;;;;;5114221;27;1632;-67
2022/06/26 11:08:37;;;;;;;;;;;;;;;;;;5132951;27;788;-66
2022/06/26 11:11:09;;;;;;;;;;;;;;;;;;5133181;27;841;-66
2022/06/26 11:13:36;;;;;;;;;;;;;;;;;;5131080;27;1014;-67
2022/06/26 11:16:02;;;;;;;;;;;;;;;;;;5132606;27;590;-67
2022/06/26 11:18:32;;;;;;;;;;;;;;;;;;5113585;27;1963;-67
2022/06/26 11:20:57;;;;;;;;;;;;;;;;;;5132406;27;927;-67
2022/06/26 11:23:24;;;;;;;;;;;;;;;;;;5131015;27;912;-67
2022/06/26 11:25:54;;;;;;;;;;;;;;;;;;5130796;27;1177;-67
2022/06/26 11:28:20;;;;;;;;;;;;;;;;;;5131713;27;1039;-66
2022/06/26 11:30:46;;;;;;;;;;;;;;;;;;5132416;27;896;-66
2022/06/26 11:33:12;;;;;;;;;;;;;;;;;;5132368;27;1380;-67
2022/06/26 11:35:37;;;;;;;;;;;;;;;;;;5132314;27;990;-66
2022/06/26 11:38:13;;;;;;;;;;;;;;;;;;5114035;27;1909;-67
2022/06/26 11:40:38;;;;;;;;;;;;;;;;;;5131801;27;902;-67
2022/06/26 11:43:03;;;;;;;;;;;;;;;;;;5132238;27;857;-66
2022/06/26 11:45:33;;;;;;;;;;;;;;;;;;5131978;27;816;-66
2022/06/26 11:48:04;;;;;;;;;;;;;;;;;;5132446;27;871;-67
2022/06/26 11:50:33;;;;;;;;;;;;;;;;;;5131651;27;856;-66
2022/06/26 11:52:58;;;;;;;;;;;;;;;;;;5132864;27;878;-67
2022/06/26 11:55:25;;;;;;;;;;;;;;;;;;5131627;27;887;-67
2022/06/26 11:57:50;;;;;;;;;;;;;;;;;;5132137;27;947;-67
2022/06/26 12:00:19;;;;;;;;;;;;;;;;;;5130089;27;1949;-67
2022/06/26 12:02:45;;;;;;;;;;;;;;;;;;5130131;27;1267;-67
2022/06/26 12:05:11;;;;;;;;;;;;;;;;;;5130878;27;1379;-67
2022/06/26 12:07:43;;;;;;;;;;;;;;;;;;5132129;27;832;-67
2022/06/26 12:10:09;;;;;;;;;;;;;;;;;;5133346;27;764;-66
2022/06/26 12:12:34;;;;;;;;;;;;;;;;;;5131947;27;841;-67
2022/06/26 12:15:00;;;;;;;;;;;;;;;;;;5132773;27;896;-66
2022/06/26 12:17:27;;;;;;;;;;;;;;;;;;5131498;27;883;-66
2022/06/26 12:19:53;;;;;;;;;;;;;;;;;;5132427;27;1958;-66
2022/06/26 12:22:28;;;;;;;;;;;;;;;;;;5131135;27;874;-66
2022/06/26 12:24:54;;;;;;;;;;;;;;;;;;5132662;27;859;-67
2022/06/26 12:27:19;;;;;;;;;;;;;;;;;;5129899;27;1184;-67
2022/06/26 12:29:45;;;;;;;;;;;;;;;;;;5132246;27;939;-66
2022/06/26 12:32:10;;;;;;;;;;;;;;;;;;5131552;27;1264;-66
2022/06/26 12:34:35;;;;;;;;;;;;;;;;;;5130269;28;1225;-66
2022/06/26 12:37:01;;;;;;;;;;;;;;;;;;5131951;28;892;-66
2022/06/26 12:39:26;;;;;;;;;;;;;;;;;;5129011;28;1980;-66
2022/06/26 12:41:51;;;;;;;;;;;;;;;;;;5131660;28;840;-66
2022/06/26 12:44:17;;;;;;;;;;;;;;;;;;5131374;27;954;-66
2022/06/26 12:46:42;;;;;;;;;;;;;;;;;;5129780;27;1298;-66
2022/06/26 12:49:07;;;;;;;;;;;;;;;;;;5130335;28;831;-66
2022/06/26 12:51:32;;;;;;;;;;;;;;;;;;5131211;27;839;-66
2022/06/26 12:53:58;;;;;;;;;;;;;;;;;;5130155;27;1391;-66
2022/06/26 12:56:23;;;;;;;;;;;;;;;;;;5130893;27;781;-66
2022/06/26 12:58:49;;;;;;;;;;;;;;;;;;5130465;28;1958;-66
2022/06/26 13:01:14;;;;;;;;;;;;;;;;;;5131232;27;888;-66
2022/06/26 13:03:39;;;;;;;;;;;;;;;;;;5130964;28;828;-66
2022/06/26 13:06:05;;;;;;;;;;;;;;;;;;5131337;27;754;-66
2022/06/26 13:08:31;;;;;;;;;;;;;;;;;;5129530;28;1560;-66
2022/06/26 13:11:22;;;;;;;;;;;;;;;;;;5131145;27;836;-66
2022/06/26 13:13:41;;;;;;;;;;;;;;;;;;5133031;27;1060;-66
2022/06/26 13:16:07;;;;;;;;;;;;;;;;;;5136201;27;872;-66
2022/06/26 13:18:32;;;;;;;;;;;;;;;;;;5136903;27;1975;-66
2022/06/26 13:20:57;;;;;;;;;;;;;;;;;;5117607;27;849;-67
2022/06/26 13:23:22;;;;;;;;;;;;;;;;;;5135012;27;808;-66
2022/06/26 13:25:48;;;;;;;;;;;;;;;;;;5135481;27;793;-66
2022/06/26 13:28:13;;;;;;;;;;;;;;;;;;5134605;27;902;-66
2022/06/26 13:30:38;;;;;;;;;;;;;;;;;;5116951;27;1195;-67
2022/06/26 13:33:04;;;;;;;;;;;;;;;;;;5134896;27;1365;-67
2022/06/26 13:35:29;;;;;;;;;;;;;;;;;;5133246;27;998;-66
2022/06/26 13:37:54;;;;;;;;;;;;;;;;;;5135020;27;1164;-66
2022/06/26 13:40:20;;;;;;;;;;;;;;;;;;5135346;27;1886;-66
2022/06/26 13:42:45;;;;;;;;;;;;;;;;;;5135620;27;831;-66
2022/06/26 13:45:10;;;;;;;;;;;;;;;;;;5135585;27;903;-66
2022/06/26 13:47:37;;;;;;;;;;;;;;;;;;5132502;27;1214;-66
2022/06/26 13:50:02;;;;;;;;;;;;;;;;;;5116143;27;1226;-66
2022/06/26 13:52:28;;;;;;;;;;;;;;;;;;5134179;27;887;-66
2022/06/26 13:54:53;;;;;;;;;;;;;;;;;;5135084;27;895;-66
2022/06/26 13:57:18;;;;;;;;;;;;;;;;;;5133878;27;903;-66
2022/06/26 13:59:43;;;;;;;;;;;;;;;;;;5133395;27;1897;-66
2022/06/26 14:02:11;;;;;;;;;;;;;;;;;;5134815;27;884;-66
2022/06/26 14:04:37;;;;;;;;;;;;;;;;;;5132702;27;1309;-66
2022/06/26 14:07:03;;;;;;;;;;;;;;;;;;5134581;27;840;-66
2022/06/26 14:09:28;;;;;;;;;;;;;;;;;;5132430;27;884;-66
2022/06/26 14:11:53;;;;;;;;;;;;;;;;;;5132429;27;884;-66
2022/06/26 14:14:19;;;;;;;;;;;;;;;;;;5133738;27;800;-66
2022/06/26 14:16:44;;;;;;;;;;;;;;;;;;5132072;27;1192;-65
2022/06/26 14:19:09;;;;;;;;;;;;;;;;;;5133878;27;1913;-66
2022/06/26 14:21:34;;;;;;;;;;;;;;;;;;5132680;27;962;-66
2022/06/26 14:26:43;;;;;;;;;;;;;;;;;;5133840;27;664;-65
2022/06/26 14:29:08;;;;;;;;;;;;;;;;;;5134055;27;998;-65
2022/06/26 14:31:34;;;;;;;;;;;;;;;;;;5114123;27;1315;-65
2022/06/26 14:34:03;;;;;;;;;;;;;;;;;;5132979;27;1198;-66
2022/06/26 14:36:28;;;;;;;;;;;;;;;;;;5132903;27;911;-65
2022/06/26 14:38:53;;;;;;;;;;;;;;;;;;5133426;27;1917;-66
2022/06/26 14:41:19;;;;;;;;;;;;;;;;;;5114861;27;1351;-66
2022/06/26 14:43:44;;;;;;;;;;;;;;;;;;5131269;27;809;-65
2022/06/26 14:46:09;;;;;;;;;;;;;;;;;;5133149;27;880;-66
2022/06/26 14:48:35;;;;;;;;;;;;;;;;;;5131403;27;812;-66
2022/06/26 14:51:00;;;;;;;;;;;;;;;;;;5131331;27;1413;-66
2022/06/26 14:53:25;;;;;;;;;;;;;;;;;;5132181;27;907;-66
2022/06/26 14:55:51;;;;;;;;;;;;;;;;;;5132808;27;793;-65
2022/06/26 14:58:25;;;;;;;;;;;;;;;;;;5131422;27;1895;-66
2022/06/26 15:00:51;;;;;;;;;;;;;;;;;;5132917;27;855;-65
2022/06/26 15:03:17;;;;;;;;;;;;;;;;;;5131283;27;1457;-65
2022/06/26 15:05:42;;;;;;;;;;;;;;;;;;5130695;27;1245;-66
2022/06/26 15:08:07;;;;;;;;;;;;;;;;;;5132054;27;836;-66
2022/06/26 15:10:33;;;;;;;;;;;;;;;;;;5130551;27;1182;-66
2022/06/26 15:12:58;;;;;;;;;;;;;;;;;;5132938;27;844;-66
2022/06/26 15:15:24;;;;;;;;;;;;;;;;;;5130474;27;1023;-66
2022/06/26 15:17:49;;;;;;;;;;;;;;;;;;5114267;27;1233;-66
2022/06/26 15:20:15;;;;;;;;;;;;;;;;;;5132233;27;1873;-66
2022/06/26 15:22:40;;;;;;;;;;;;;;;;;;5130939;27;1036;-66
2022/06/26 15:25:06;;;;;;;;;;;;;;;;;;5131904;27;1237;-66
2022/06/26 15:27:31;;;;;;;;;;;;;;;;;;5131784;27;1003;-66
2022/06/26 15:29:56;;;;;;;;;;;;;;;;;;5131714;27;1261;-66
2022/06/26 15:32:22;;;;;;;;;;;;;;;;;;5132941;27;1293;-66
2022/06/26 15:34:47;;;;;;;;;;;;;;;;;;5133142;27;977;-66
2022/06/26 15:37:14;;;;;;;;;;;;;;;;;;5104350;28;1468;-66
2022/06/26 15:39:39;;;;;;;;;;;;;;;;;;5105623;28;2048;-66
2022/06/26 15:42:05;;;;;;;;;;;;;;;;;;5112764;27;1703;-65
2022/06/26 15:44:30;;;;;;;;;;;;;;;;;;5110724;28;1922;-65
2022/06/26 15:46:55;;;;;;;;;;;;;;;;;;5110194;28;1209;-65
2022/06/26 15:49:21;;;;;;;;;;;;;;;;;;5110497;28;899;-65
2022/06/26 15:51:46;;;;;;;;;;;;;;;;;;5114429;27;1048;-66
2022/06/26 15:54:12;;;;;;;;;;;;;;;;;;5111592;27;1174;-65
2022/06/26 15:56:37;;;;;;;;;;;;;;;;;;5115078;27;1163;-65
2022/06/26 15:59:03;;;;;;;;;;;;;;;;;;5125560;27;1897;-65
2022/06/26 16:01:28;;;;;;;;;;;;;;;;;;5120884;27;1194;-65
2022/06/26 16:03:59;;;;;;;;;;;;;;;;;;5091433;28;1273;-66
2022/06/26 16:06:24;;;;;;;;;;;;;;;;;;5111547;28;852;-65
2022/06/26 16:08:50;;;;;;;;;;;;;;;;;;5111222;28;832;-65
2022/06/26 16:11:15;;;;;;;;;;;;;;;;;;5112176;28;899;-66
2022/06/26 16:13:40;;;;;;;;;;;;;;;;;;5111100;28;931;-65
2022/06/26 16:16:05;;;;;;;;;;;;;;;;;;5111480;28;892;-66
2022/06/26 16:18:33;;;;;;;;;;;;;;;;;;5111365;28;1890;-66
2022/06/26 16:20:59;;;;;;;;;;;;;;;;;;5111538;28;1171;-66
2022/06/26 16:26:17;;;;;;;;;;;;;;;;;;5111066;28;702;-66
2022/06/26 16:28:43;;;;;;;;;;;;;;;;;;5109335;28;1019;-66
2022/06/26 16:31:08;;;;;;;;;;;;;;;;;;5111406;28;824;-66
2022/06/26 16:33:33;;;;;;;;;;;;;;;;;;5109056;28;1282;-66
2022/06/26 16:35:59;;;;;;;;;;;;;;;;;;5109624;28;1155;-66
2022/06/26 16:38:24;;;;;;;;;;;;;;;;;;5111009;28;1963;-66
2022/06/26 16:40:49;;;;;;;;;;;;;;;;;;5110870;28;887;-65
2022/06/26 16:43:14;;;;;;;;;;;;;;;;;;5110798;28;931;-67
2022/06/26 16:45:40;;;;;;;;;;;;;;;;;;5087928;28;1649;-66
2022/06/26 16:48:05;;;;;;;;;;;;;;;;;;5112509;27;1507;-66
2022/06/26 16:50:30;;;;;;;;;;;;;;;;;;5111967;28;1574;-66
2022/06/26 16:52:56;;;;;;;;;;;;;;;;;;5104128;28;1844;-66
2022/06/26 16:55:22;;;;;;;;;;;;;;;;;;5111510;28;1363;-66
2022/06/26 16:57:47;;;;;;;;;;;;;;;;;;5119377;27;1171;-67
2022/06/26 17:00:13;;;;;;;;;;;;;;;;;;5135315;27;1901;-66
2022/06/26 17:02:38;;;;;;;;;;;;;;;;;;5135157;27;966;-66
2022/06/26 17:05:04;;;;;;;;;;;;;;;;;;5135085;27;915;-66
2022/06/26 17:07:29;;;;;;;;;;;;;;;;;;5134596;27;937;-67
2022/06/26 17:09:55;;;;;;;;;;;;;;;;;;5134391;27;915;-66
2022/06/26 17:12:20;;;;;;;;;;;;;;;;;;5135883;27;904;-67
2022/06/26 17:14:45;;;;;;;;;;;;;;;;;;5134467;27;1057;-67
2022/06/26 17:17:11;;;;;;;;;;;;;;;;;;5135900;27;911;-66
2022/06/26 17:19:38;;;;;;;;;;;;;;;;;;5135543;27;1909;-67
2022/06/26 17:22:03;;;;;;;;;;;;;;;;;;5135932;27;864;-66
2022/06/26 17:24:28;;;;;;;;;;;;;;;;;;5135364;27;864;-67
2022/06/26 17:26:53;;;;;;;;;;;;;;;;;;5135334;27;942;-67